sensor_id;sensor_type;location;lat;lon;timestamp;pressure;altitude;pressure_sealevel;temperature;humidity
72409;BME280;60402;48.082;11.628;2023-08-12T00:01:06;95785.91;;;17.65;100.00
72409;BME280;60402;48.082;11.628;2023-08-12T00:03:53;95792.88;;;17.64;100.00
72409;BME280;60402;48.082;11.628;2023-08-12T00:06:38;95777.97;;;17.69;100.00
72409;BME280;60402;48.082;11.628;2023-08-12T00:09:24;95778.25;;;17.71;100.00
72409;BME280;60402;48.082;11.628;2023-08-12T00:12:10;95789.16;;;17.82;100.00
72409;BME280;60402;48.082;11.628;2023-08-12T00:14:56;95789.97;;;17.82;100.00
72409;BME280;60402;48.082;11.628;2023-08-12T00:17:42;95783.03;;;17.74;100.00
72409;BME280;60402;48.082;11.628;2023-08-12T00:20:27;95790.94;;;17.79;100.00
72409;BME280;60402;48.082;11.628;2023-08-12T00:23:13;95785.53;;;17.72;100.00
72409;BME280;60402;48.082;11.628;2023-08-12T00:25:59;95786.34;;;17.73;100.00
72409;BME280;60402;48.082;11.628;2023-08-12T00:28:48;95787.84;;;17.59;100.00
72409;BME280;60402;48.082;11.628;2023-08-12T00:31:34;95778.34;;;17.53;100.00
72409;BME280;60402;48.082;11.628;2023-08-12T00:34:20;95769.78;;;17.53;100.00
72409;BME280;60402;48.082;11.628;2023-08-12T00:37:05;95774.53;;;17.56;100.00
72409;BME280;60402;48.082;11.628;2023-08-12T00:39:51;95758.22;;;17.47;100.00
72409;BME280;60402;48.082;11.628;2023-08-12T00:42:37;95776.47;;;17.41;100.00
72409;BME280;60402;48.082;11.628;2023-08-12T00:45:22;95759.84;;;17.39;100.00
72409;BME280;60402;48.082;11.628;2023-08-12T00:48:09;95768.28;;;17.33;100.00
72409;BME280;60402;48.082;11.628;2023-08-12T00:50:55;95749.31;;;17.12;100.00
72409;BME280;60402;48.082;11.628;2023-08-12T00:53:41;95765.41;;;17.33;100.00
72409;BME280;60402;48.082;11.628;2023-08-12T00:56:27;95745.31;;;17.28;100.00
72409;BME280;60402;48.082;11.628;2023-08-12T00:59:14;95754.28;;;17.35;100.00
72409;BME280;60402;48.082;11.628;2023-08-12T01:02:00;95759.09;;;17.29;100.00
72409;BME280;60402;48.082;11.628;2023-08-12T01:04:46;95752.13;;;17.21;100.00
72409;BME280;60402;48.082;11.628;2023-08-12T01:07:32;95759.13;;;17.20;100.00
72409;BME280;60402;48.082;11.628;2023-08-12T01:10:20;95762.16;;;17.17;100.00
72409;BME280;60402;48.082;11.628;2023-08-12T01:13:26;95758.50;;;17.16;100.00
72409;BME280;60402;48.082;11.628;2023-08-12T01:16:17;95754.06;;;17.15;100.00
72409;BME280;60402;48.082;11.628;2023-08-12T01:19:05;95748.97;;;17.19;100.00
72409;BME280;60402;48.082;11.628;2023-08-12T01:21:53;95738.22;;;17.14;100.00
72409;BME280;60402;48.082;11.628;2023-08-12T01:24:42;95736.16;;;17.15;100.00
72409;BME280;60402;48.082;11.628;2023-08-12T01:27:28;95733.81;;;17.04;100.00
72409;BME280;60402;48.082;11.628;2023-08-12T01:30:14;95731.00;;;16.95;100.00
72409;BME280;60402;48.082;11.628;2023-08-12T01:33:10;95736.88;;;16.91;100.00
72409;BME280;60402;48.082;11.628;2023-08-12T01:36:07;95732.28;;;16.84;100.00
72409;BME280;60402;48.082;11.628;2023-08-12T01:38:55;95735.63;;;16.83;100.00
72409;BME280;60402;48.082;11.628;2023-08-12T01:41:41;95731.84;;;16.77;100.00
72409;BME280;60402;48.082;11.628;2023-08-12T01:44:27;95725.50;;;16.64;100.00
72409;BME280;60402;48.082;11.628;2023-08-12T01:47:13;95734.03;;;16.64;100.00
72409;BME280;60402;48.082;11.628;2023-08-12T01:49:59;95733.09;;;16.67;100.00
72409;BME280;60402;48.082;11.628;2023-08-12T01:52:45;95742.44;;;16.67;100.00
72409;BME280;60402;48.082;11.628;2023-08-12T01:55:30;95723.13;;;16.53;100.00
72409;BME280;60402;48.082;11.628;2023-08-12T01:58:16;95724.88;;;16.50;100.00
72409;BME280;60402;48.082;11.628;2023-08-12T02:01:01;95722.22;;;16.38;100.00
72409;BME280;60402;48.082;11.628;2023-08-12T02:03:47;95712.56;;;16.26;100.00
72409;BME280;60402;48.082;11.628;2023-08-12T02:06:33;95717.31;;;16.38;100.00
72409;BME280;60402;48.082;11.628;2023-08-12T02:09:18;95728.38;;;16.45;100.00
72409;BME280;60402;48.082;11.628;2023-08-12T02:12:04;95720.59;;;16.46;100.00
72409;BME280;60402;48.082;11.628;2023-08-12T02:14:50;95709.84;;;16.41;100.00
72409;BME280;60402;48.082;11.628;2023-08-12T02:17:36;95719.38;;;16.38;100.00
72409;BME280;60402;48.082;11.628;2023-08-12T02:20:22;95707.78;;;16.32;100.00
72409;BME280;60402;48.082;11.628;2023-08-12T02:23:07;95694.03;;;16.21;100.00
72409;BME280;60402;48.082;11.628;2023-08-12T02:25:53;95688.66;;;16.05;100.00
72409;BME280;60402;48.082;11.628;2023-08-12T02:28:39;95693.41;;;16.08;100.00
72409;BME280;60402;48.082;11.628;2023-08-12T02:31:25;95691.19;;;16.03;100.00
72409;BME280;60402;48.082;11.628;2023-08-12T02:34:11;95694.66;;;16.07;100.00
72409;BME280;60402;48.082;11.628;2023-08-12T02:36:56;95696.25;;;16.08;100.00
72409;BME280;60402;48.082;11.628;2023-08-12T02:39:42;95692.16;;;16.00;100.00
72409;BME280;60402;48.082;11.628;2023-08-12T02:42:28;95688.66;;;15.96;100.00
72409;BME280;60402;48.082;11.628;2023-08-12T02:45:13;95692.59;;;15.80;100.00
72409;BME280;60402;48.082;11.628;2023-08-12T02:47:59;95693.41;;;15.90;100.00
72409;BME280;60402;48.082;11.628;2023-08-12T02:50:45;95694.19;;;15.90;100.00
72409;BME280;60402;48.082;11.628;2023-08-12T02:53:30;95679.47;;;15.82;100.00
72409;BME280;60402;48.082;11.628;2023-08-12T02:56:16;95668.88;;;15.83;100.00
72409;BME280;60402;48.082;11.628;2023-08-12T02:59:01;95674.09;;;15.94;100.00
72409;BME280;60402;48.082;11.628;2023-08-12T03:01:47;95670.78;;;15.95;100.00
72409;BME280;60402;48.082;11.628;2023-08-12T03:04:33;95673.13;;;15.88;100.00
72409;BME280;60402;48.082;11.628;2023-08-12T03:07:18;95675.06;;;15.81;100.00
72409;BME280;60402;48.082;11.628;2023-08-12T03:10:04;95666.50;;;15.72;100.00
72409;BME280;60402;48.082;11.628;2023-08-12T03:12:50;95666.50;;;15.81;100.00
72409;BME280;60402;48.082;11.628;2023-08-12T03:15:39;95667.44;;;15.78;100.00
72409;BME280;60402;48.082;11.628;2023-08-12T03:18:25;95665.72;;;15.72;100.00
72409;BME280;60402;48.082;11.628;2023-08-12T03:21:11;95667.44;;;15.69;100.00
72409;BME280;60402;48.082;11.628;2023-08-12T03:23:56;95670.00;;;15.76;100.00
72409;BME280;60402;48.082;11.628;2023-08-12T03:26:42;95677.41;;;15.83;100.00
72409;BME280;60402;48.082;11.628;2023-08-12T03:29:28;95681.38;;;15.76;100.00
72409;BME280;60402;48.082;11.628;2023-08-12T03:32:13;95675.69;;;15.67;100.00
72409;BME280;60402;48.082;11.628;2023-08-12T03:34:59;95670.28;;;15.69;100.00
72409;BME280;60402;48.082;11.628;2023-08-12T03:37:45;95675.63;;;15.58;100.00
72409;BME280;60402;48.082;11.628;2023-08-12T03:40:31;95669.59;;;15.56;100.00
72409;BME280;60402;48.082;11.628;2023-08-12T03:43:16;95674.66;;;15.61;100.00
72409;BME280;60402;48.082;11.628;2023-08-12T03:46:02;95677.56;;;15.70;100.00
72409;BME280;60402;48.082;11.628;2023-08-12T03:48:47;95673.63;;;15.68;100.00
72409;BME280;60402;48.082;11.628;2023-08-12T03:51:33;95673.44;;;15.62;100.00
72409;BME280;60402;48.082;11.628;2023-08-12T03:54:19;95674.34;;;15.50;100.00
72409;BME280;60402;48.082;11.628;2023-08-12T03:57:04;95672.44;;;15.47;100.00
72409;BME280;60402;48.082;11.628;2023-08-12T03:59:50;95668.31;;;15.48;100.00
72409;BME280;60402;48.082;11.628;2023-08-12T04:02:36;95674.22;;;15.53;100.00
72409;BME280;60402;48.082;11.628;2023-08-12T04:05:22;95668.97;;;15.52;100.00
72409;BME280;60402;48.082;11.628;2023-08-12T04:08:07;95670.38;;;15.47;100.00
72409;BME280;60402;48.082;11.628;2023-08-12T04:10:53;95668.94;;;15.33;100.00
72409;BME280;60402;48.082;11.628;2023-08-12T04:13:38;95671.13;;;15.20;100.00
72409;BME280;60402;48.082;11.628;2023-08-12T04:16:24;95675.72;;;15.18;100.00
72409;BME280;60402;48.082;11.628;2023-08-12T04:19:10;95677.66;;;15.30;100.00
72409;BME280;60402;48.082;11.628;2023-08-12T04:21:55;95670.81;;;15.27;100.00
72409;BME280;60402;48.082;11.628;2023-08-12T04:24:41;95666.41;;;15.26;100.00
72409;BME280;60402;48.082;11.628;2023-08-12T04:27:27;95669.72;;;15.25;100.00
72409;BME280;60402;48.082;11.628;2023-08-12T04:30:12;95679.69;;;15.20;100.00
72409;BME280;60402;48.082;11.628;2023-08-12T04:32:59;95671.31;;;15.26;100.00
72409;BME280;60402;48.082;11.628;2023-08-12T04:35:45;95666.56;;;15.32;100.00
72409;BME280;60402;48.082;11.628;2023-08-12T04:38:30;95669.91;;;15.40;100.00
72409;BME280;60402;48.082;11.628;2023-08-12T04:41:16;95662.59;;;15.20;100.00
72409;BME280;60402;48.082;11.628;2023-08-12T04:44:05;95664.16;;;15.12;100.00
72409;BME280;60402;48.082;11.628;2023-08-12T04:46:50;95663.22;;;15.15;100.00
72409;BME280;60402;48.082;11.628;2023-08-12T04:49:36;95667.34;;;15.23;100.00
72409;BME280;60402;48.082;11.628;2023-08-12T04:52:21;95673.03;;;15.23;100.00
72409;BME280;60402;48.082;11.628;2023-08-12T04:55:07;95669.25;;;15.26;100.00
72409;BME280;60402;48.082;11.628;2023-08-12T04:57:53;95671.31;;;15.35;100.00
72409;BME280;60402;48.082;11.628;2023-08-12T05:00:39;95663.09;;;15.37;100.00
72409;BME280;60402;48.082;11.628;2023-08-12T05:03:25;95669.16;;;15.57;100.00
72409;BME280;60402;48.082;11.628;2023-08-12T05:06:10;95670.94;;;15.73;100.00
72409;BME280;60402;48.082;11.628;2023-08-12T05:08:56;95678.69;;;15.91;100.00
72409;BME280;60402;48.082;11.628;2023-08-12T05:11:42;95669.00;;;15.98;100.00
72409;BME280;60402;48.082;11.628;2023-08-12T05:14:27;95676.00;;;16.06;100.00
72409;BME280;60402;48.082;11.628;2023-08-12T05:17:13;95672.81;;;16.13;100.00
72409;BME280;60402;48.082;11.628;2023-08-12T05:19:59;95679.28;;;16.23;100.00
72409;BME280;60402;48.082;11.628;2023-08-12T05:22:44;95671.69;;;16.20;100.00
72409;BME280;60402;48.082;11.628;2023-08-12T05:25:30;95663.00;;;16.14;100.00
72409;BME280;60402;48.082;11.628;2023-08-12T05:28:16;95668.84;;;16.29;100.00
72409;BME280;60402;48.082;11.628;2023-08-12T05:31:01;95673.75;;;16.38;100.00
72409;BME280;60402;48.082;11.628;2023-08-12T05:33:47;95674.16;;;16.54;100.00
72409;BME280;60402;48.082;11.628;2023-08-12T05:36:33;95670.66;;;16.59;100.00
72409;BME280;60402;48.082;11.628;2023-08-12T05:39:18;95671.28;;;16.73;100.00
72409;BME280;60402;48.082;11.628;2023-08-12T05:42:04;95667.59;;;16.81;100.00
72409;BME280;60402;48.082;11.628;2023-08-12T05:44:50;95669.50;;;16.84;100.00
72409;BME280;60402;48.082;11.628;2023-08-12T05:47:35;95676.09;;;17.00;100.00
72409;BME280;60402;48.082;11.628;2023-08-12T05:50:21;95678.59;;;17.07;100.00
72409;BME280;60402;48.082;11.628;2023-08-12T05:53:07;95673.81;;;17.13;100.00
72409;BME280;60402;48.082;11.628;2023-08-12T05:55:52;95679.44;;;17.31;100.00
72409;BME280;60402;48.082;11.628;2023-08-12T05:58:38;95665.53;;;17.48;100.00
72409;BME280;60402;48.082;11.628;2023-08-12T06:01:24;95673.47;;;17.68;100.00
72409;BME280;60402;48.082;11.628;2023-08-12T06:04:09;95679.47;;;17.79;100.00
72409;BME280;60402;48.082;11.628;2023-08-12T06:06:55;95677.44;;;17.95;100.00
72409;BME280;60402;48.082;11.628;2023-08-12T06:09:40;95670.88;;;18.18;100.00
72409;BME280;60402;48.082;11.628;2023-08-12T06:12:27;95664.50;;;18.38;100.00
72409;BME280;60402;48.082;11.628;2023-08-12T06:15:13;95666.19;;;18.59;100.00
72409;BME280;60402;48.082;11.628;2023-08-12T06:17:59;95668.56;;;18.90;99.89
72409;BME280;60402;48.082;11.628;2023-08-12T06:20:45;95666.03;;;19.28;96.86
72409;BME280;60402;48.082;11.628;2023-08-12T06:23:31;95658.44;;;19.60;95.71
72409;BME280;60402;48.082;11.628;2023-08-12T06:26:16;95661.16;;;19.69;95.03
72409;BME280;60402;48.082;11.628;2023-08-12T06:29:02;95664.03;;;20.10;93.73
72409;BME280;60402;48.082;11.628;2023-08-12T06:31:48;95668.84;;;20.19;93.26
72409;BME280;60402;48.082;11.628;2023-08-12T06:34:33;95665.56;;;20.78;90.16
72409;BME280;60402;48.082;11.628;2023-08-12T06:37:19;95665.09;;;20.85;88.67
72409;BME280;60402;48.082;11.628;2023-08-12T06:40:05;95669.25;;;20.84;88.71
72409;BME280;60402;48.082;11.628;2023-08-12T06:42:51;95661.00;;;21.29;87.49
72409;BME280;60402;48.082;11.628;2023-08-12T06:45:36;95656.69;;;21.44;86.20
72409;BME280;60402;48.082;11.628;2023-08-12T06:48:22;95664.69;;;21.72;83.91
72409;BME280;60402;48.082;11.628;2023-08-12T06:51:08;95656.16;;;21.89;84.34
72409;BME280;60402;48.082;11.628;2023-08-12T06:53:56;95657.69;;;22.44;81.72
72409;BME280;60402;48.082;11.628;2023-08-12T06:56:42;95648.63;;;23.35;78.10
72409;BME280;60402;48.082;11.628;2023-08-12T06:59:28;95646.50;;;23.64;75.60
72409;BME280;60402;48.082;11.628;2023-08-12T07:02:13;95652.13;;;24.14;73.73
72409;BME280;60402;48.082;11.628;2023-08-12T07:04:59;95645.34;;;25.00;68.63
72409;BME280;60402;48.082;11.628;2023-08-12T07:07:44;95647.44;;;25.90;66.02
72409;BME280;60402;48.082;11.628;2023-08-12T07:10:30;95641.50;;;27.20;61.56
72409;BME280;60402;48.082;11.628;2023-08-12T07:13:16;95643.13;;;28.19;57.37
72409;BME280;60402;48.082;11.628;2023-08-12T07:16:01;95645.56;;;28.55;55.52
72409;BME280;60402;48.082;11.628;2023-08-12T07:18:47;95646.38;;;28.29;55.92
72409;BME280;60402;48.082;11.628;2023-08-12T07:21:33;95647.53;;;29.21;54.89
72409;BME280;60402;48.082;11.628;2023-08-12T07:24:18;95648.97;;;29.27;52.60
72409;BME280;60402;48.082;11.628;2023-08-12T07:27:04;95648.00;;;31.48;48.26
72409;BME280;60402;48.082;11.628;2023-08-12T07:29:50;95655.88;;;31.17;46.55
72409;BME280;60402;48.082;11.628;2023-08-12T07:32:38;95651.38;;;31.83;45.59
72409;BME280;60402;48.082;11.628;2023-08-12T07:35:24;95645.69;;;35.38;39.31
72409;BME280;60402;48.082;11.628;2023-08-12T07:38:10;95653.03;;;36.47;36.31
72409;BME280;60402;48.082;11.628;2023-08-12T07:40:56;95642.09;;;36.21;35.07
72409;BME280;60402;48.082;11.628;2023-08-12T07:43:41;95646.78;;;36.33;35.26
72409;BME280;60402;48.082;11.628;2023-08-12T07:46:28;95647.06;;;36.28;34.92
72409;BME280;60402;48.082;11.628;2023-08-12T07:49:15;95642.38;;;36.91;35.45
72409;BME280;60402;48.082;11.628;2023-08-12T07:52:01;95643.44;;;35.02;36.58
72409;BME280;60402;48.082;11.628;2023-08-12T07:54:47;95652.84;;;39.29;32.08
72409;BME280;60402;48.082;11.628;2023-08-12T07:57:33;95661.41;;;36.04;33.46
72409;BME280;60402;48.082;11.628;2023-08-12T08:00:19;95653.78;;;35.20;35.70
72409;BME280;60402;48.082;11.628;2023-08-12T08:03:05;95648.63;;;37.84;33.00
72409;BME280;60402;48.082;11.628;2023-08-12T08:05:50;95649.69;;;39.36;29.76
72409;BME280;60402;48.082;11.628;2023-08-12T08:08:36;95646.47;;;39.77;29.48
72409;BME280;60402;48.082;11.628;2023-08-12T08:11:24;95648.78;;;39.13;29.09
72409;BME280;60402;48.082;11.628;2023-08-12T08:14:09;95649.81;;;38.31;30.88
72409;BME280;60402;48.082;11.628;2023-08-12T08:16:55;95653.75;;;36.38;32.80
72409;BME280;60402;48.082;11.628;2023-08-12T08:19:41;95646.06;;;37.30;31.83
72409;BME280;60402;48.082;11.628;2023-08-12T08:22:26;95640.63;;;37.55;31.83
72409;BME280;60402;48.082;11.628;2023-08-12T08:25:12;95648.38;;;36.64;32.54
72409;BME280;60402;48.082;11.628;2023-08-12T08:27:58;95645.66;;;38.15;31.14
72409;BME280;60402;48.082;11.628;2023-08-12T08:30:44;95646.38;;;36.76;31.55
72409;BME280;60402;48.082;11.628;2023-08-12T08:33:29;95646.81;;;37.59;31.13
72409;BME280;60402;48.082;11.628;2023-08-12T08:36:15;95641.53;;;37.58;30.73
72409;BME280;60402;48.082;11.628;2023-08-12T08:39:02;95645.28;;;39.26;29.20
72409;BME280;60402;48.082;11.628;2023-08-12T08:41:48;95642.69;;;38.56;29.36
72409;BME280;60402;48.082;11.628;2023-08-12T08:44:34;95639.38;;;39.26;30.34
72409;BME280;60402;48.082;11.628;2023-08-12T08:47:26;95651.38;;;39.51;29.30
72409;BME280;60402;48.082;11.628;2023-08-12T08:50:12;95647.47;;;39.25;30.46
72409;BME280;60402;48.082;11.628;2023-08-12T08:52:59;95645.31;;;37.39;32.43
72409;BME280;60402;48.082;11.628;2023-08-12T08:55:45;95661.69;;;36.08;34.35
72409;BME280;60402;48.082;11.628;2023-08-12T08:58:31;95650.69;;;34.83;36.81
72409;BME280;60402;48.082;11.628;2023-08-12T09:01:19;95664.56;;;34.06;39.08
72409;BME280;60402;48.082;11.628;2023-08-12T09:04:05;95643.13;;;34.63;39.25
72409;BME280;60402;48.082;11.628;2023-08-12T09:06:52;95655.63;;;34.64;37.90
72409;BME280;60402;48.082;11.628;2023-08-12T09:09:42;95657.00;;;34.80;38.09
72409;BME280;60402;48.082;11.628;2023-08-12T09:12:30;95654.25;;;34.65;37.88
72409;BME280;60402;48.082;11.628;2023-08-12T09:15:16;95657.13;;;34.05;39.24
72409;BME280;60402;48.082;11.628;2023-08-12T09:18:06;95657.94;;;33.07;41.08
72409;BME280;60402;48.082;11.628;2023-08-12T09:20:53;95657.44;;;32.94;42.39
72409;BME280;60402;48.082;11.628;2023-08-12T09:23:40;95658.16;;;32.16;43.50
72409;BME280;60402;48.082;11.628;2023-08-12T09:26:28;95665.38;;;32.07;43.99
72409;BME280;60402;48.082;11.628;2023-08-12T09:29:13;95663.22;;;32.15;44.42
72409;BME280;60402;48.082;11.628;2023-08-12T09:32:13;95652.34;;;32.00;46.08
72409;BME280;60402;48.082;11.628;2023-08-12T09:34:58;95655.25;;;32.00;45.47
72409;BME280;60402;48.082;11.628;2023-08-12T09:37:49;95659.13;;;32.26;44.91
72409;BME280;60402;48.082;11.628;2023-08-12T09:40:35;95654.25;;;32.28;44.59
72409;BME280;60402;48.082;11.628;2023-08-12T09:43:24;95654.84;;;32.98;44.59
72409;BME280;60402;48.082;11.628;2023-08-12T09:46:13;95650.41;;;33.29;41.56
72409;BME280;60402;48.082;11.628;2023-08-12T09:49:01;95653.94;;;33.28;42.56
72409;BME280;60402;48.082;11.628;2023-08-12T09:51:50;95652.28;;;33.10;41.62
72409;BME280;60402;48.082;11.628;2023-08-12T09:54:37;95651.97;;;32.90;42.19
72409;BME280;60402;48.082;11.628;2023-08-12T09:57:25;95640.72;;;32.71;41.87
72409;BME280;60402;48.082;11.628;2023-08-12T10:00:13;95649.78;;;32.43;42.56
72409;BME280;60402;48.082;11.628;2023-08-12T10:03:03;95652.53;;;32.10;44.42
72409;BME280;60402;48.082;11.628;2023-08-12T10:05:49;95659.75;;;32.09;44.47
72409;BME280;60402;48.082;11.628;2023-08-12T10:08:37;95647.44;;;32.03;43.52
72409;BME280;60402;48.082;11.628;2023-08-12T10:11:24;95649.56;;;31.49;44.90
72409;BME280;60402;48.082;11.628;2023-08-12T10:14:10;95641.00;;;31.74;44.73
72409;BME280;60402;48.082;11.628;2023-08-12T10:16:56;95644.44;;;31.26;45.04
72409;BME280;60402;48.082;11.628;2023-08-12T10:19:44;95649.91;;;31.30;45.42
72409;BME280;60402;48.082;11.628;2023-08-12T10:22:30;95634.31;;;31.20;45.89
72409;BME280;60402;48.082;11.628;2023-08-12T10:25:18;95647.59;;;31.36;45.63
72409;BME280;60402;48.082;11.628;2023-08-12T10:28:07;95646.09;;;30.91;46.51
72409;BME280;60402;48.082;11.628;2023-08-12T10:30:53;95642.72;;;31.46;45.70
72409;BME280;60402;48.082;11.628;2023-08-12T10:33:40;95645.66;;;31.39;45.72
72409;BME280;60402;48.082;11.628;2023-08-12T10:36:27;95646.28;;;31.68;44.82
72409;BME280;60402;48.082;11.628;2023-08-12T10:39:13;95638.47;;;31.70;44.21
72409;BME280;60402;48.082;11.628;2023-08-12T10:41:59;95645.09;;;31.78;43.14
72409;BME280;60402;48.082;11.628;2023-08-12T10:44:51;95638.47;;;31.55;44.89
72409;BME280;60402;48.082;11.628;2023-08-12T10:47:53;95642.94;;;31.48;44.74
72409;BME280;60402;48.082;11.628;2023-08-12T10:50:55;95645.47;;;31.52;44.89
72409;BME280;60402;48.082;11.628;2023-08-12T10:53:41;95636.09;;;31.38;46.08
72409;BME280;60402;48.082;11.628;2023-08-12T10:56:27;95633.00;;;31.51;45.00
72409;BME280;60402;48.082;11.628;2023-08-12T11:02:31;95635.91;;;30.41;46.54
72409;BME280;60402;48.082;11.628;2023-08-12T11:05:23;95637.59;;;30.65;46.34
72409;BME280;60402;48.082;11.628;2023-08-12T11:08:09;95617.78;;;30.35;47.45
72409;BME280;60402;48.082;11.628;2023-08-12T11:11:01;95623.44;;;30.76;47.29
72409;BME280;60402;48.082;11.628;2023-08-12T11:13:53;95621.28;;;30.33;49.33
72409;BME280;60402;48.082;11.628;2023-08-12T11:16:42;95619.16;;;30.34;48.25
72409;BME280;60402;48.082;11.628;2023-08-12T11:19:28;95619.81;;;30.47;47.95
72409;BME280;60402;48.082;11.628;2023-08-12T11:22:14;95613.03;;;30.52;47.66
72409;BME280;60402;48.082;11.628;2023-08-12T11:25:00;95607.41;;;30.54;47.55
72409;BME280;60402;48.082;11.628;2023-08-12T11:27:47;95610.69;;;30.51;48.41
72409;BME280;60402;48.082;11.628;2023-08-12T11:30:33;95616.38;;;30.64;48.68
72409;BME280;60402;48.082;11.628;2023-08-12T11:33:19;95607.41;;;30.54;48.38
72409;BME280;60402;48.082;11.628;2023-08-12T11:36:06;95609.00;;;30.63;48.47
72409;BME280;60402;48.082;11.628;2023-08-12T11:38:51;95598.19;;;30.35;49.72
72409;BME280;60402;48.082;11.628;2023-08-12T11:41:37;95593.69;;;30.34;48.19
72409;BME280;60402;48.082;11.628;2023-08-12T11:44:23;95598.25;;;30.14;47.18
72409;BME280;60402;48.082;11.628;2023-08-12T11:47:09;95593.09;;;30.28;46.40
72409;BME280;60402;48.082;11.628;2023-08-12T11:49:54;95597.25;;;30.40;45.91
72409;BME280;60402;48.082;11.628;2023-08-12T11:52:40;95592.13;;;30.25;44.66
72409;BME280;60402;48.082;11.628;2023-08-12T11:55:26;95583.38;;;30.33;44.64
72409;BME280;60402;48.082;11.628;2023-08-12T11:58:13;95590.69;;;30.55;44.39
72409;BME280;60402;48.082;11.628;2023-08-12T12:01:04;95577.84;;;30.50;44.29
72409;BME280;60402;48.082;11.628;2023-08-12T12:03:53;95593.25;;;30.59;44.06
72409;BME280;60402;48.082;11.628;2023-08-12T12:06:38;95592.69;;;30.68;44.22
72409;BME280;60402;48.082;11.628;2023-08-12T12:09:24;95587.41;;;30.66;43.08
72409;BME280;60402;48.082;11.628;2023-08-12T12:12:11;95587.31;;;30.79;42.12
72409;BME280;60402;48.082;11.628;2023-08-12T12:14:57;95583.06;;;30.88;42.05
72409;BME280;60402;48.082;11.628;2023-08-12T12:17:46;95586.31;;;30.77;42.91
72409;BME280;60402;48.082;11.628;2023-08-12T12:20:32;95580.94;;;30.96;42.55
72409;BME280;60402;48.082;11.628;2023-08-12T12:23:18;95576.84;;;30.92;42.56
72409;BME280;60402;48.082;11.628;2023-08-12T12:26:04;95572.31;;;30.75;42.70
72409;BME280;60402;48.082;11.628;2023-08-12T12:28:49;95573.16;;;30.99;42.27
72409;BME280;60402;48.082;11.628;2023-08-12T12:31:35;95563.63;;;30.98;42.15
72409;BME280;60402;48.082;11.628;2023-08-12T12:34:21;95560.72;;;31.06;40.87
72409;BME280;60402;48.082;11.628;2023-08-12T12:37:08;95565.41;;;31.17;40.53
72409;BME280;60402;48.082;11.628;2023-08-12T12:39:53;95557.41;;;31.17;40.74
72409;BME280;60402;48.082;11.628;2023-08-12T12:42:39;95551.03;;;31.42;40.89
72409;BME280;60402;48.082;11.628;2023-08-12T12:45:25;95550.66;;;31.30;40.32
72409;BME280;60402;48.082;11.628;2023-08-12T12:48:10;95561.34;;;31.27;41.56
72409;BME280;60402;48.082;11.628;2023-08-12T12:50:56;95557.81;;;31.21;41.37
72409;BME280;60402;48.082;11.628;2023-08-12T12:53:42;95551.59;;;31.25;40.84
72409;BME280;60402;48.082;11.628;2023-08-12T12:56:27;95547.56;;;31.43;41.14
72409;BME280;60402;48.082;11.628;2023-08-12T12:59:13;95548.72;;;31.63;41.33
72409;BME280;60402;48.082;11.628;2023-08-12T13:02:00;95544.63;;;31.43;41.73
72409;BME280;60402;48.082;11.628;2023-08-12T13:04:45;95538.38;;;31.32;41.54
72409;BME280;60402;48.082;11.628;2023-08-12T13:07:31;95547.31;;;31.56;40.93
72409;BME280;60402;48.082;11.628;2023-08-12T13:10:17;95544.63;;;31.51;40.95
72409;BME280;60402;48.082;11.628;2023-08-12T13:13:02;95545.00;;;31.40;40.46
72409;BME280;60402;48.082;11.628;2023-08-12T13:15:48;95544.41;;;31.41;40.81
72409;BME280;60402;48.082;11.628;2023-08-12T13:18:34;95551.63;;;31.40;40.96
72409;BME280;60402;48.082;11.628;2023-08-12T13:21:20;95545.56;;;31.38;42.06
72409;BME280;60402;48.082;11.628;2023-08-12T13:24:05;95552.75;;;31.22;42.74
72409;BME280;60402;48.082;11.628;2023-08-12T13:26:51;95558.94;;;30.88;44.28
72409;BME280;60402;48.082;11.628;2023-08-12T13:29:38;95549.97;;;30.78;46.00
72409;BME280;60402;48.082;11.628;2023-08-12T13:32:23;95554.03;;;30.75;45.75
72409;BME280;60402;48.082;11.628;2023-08-12T13:35:09;95541.34;;;30.65;44.11
72409;BME280;60402;48.082;11.628;2023-08-12T13:37:56;95545.13;;;30.96;44.26
72409;BME280;60402;48.082;11.628;2023-08-12T13:40:42;95539.53;;;31.05;45.34
72409;BME280;60402;48.082;11.628;2023-08-12T13:43:28;95542.81;;;31.10;45.61
72409;BME280;60402;48.082;11.628;2023-08-12T13:46:13;95544.59;;;31.20;45.13
72409;BME280;60402;48.082;11.628;2023-08-12T13:48:59;95535.09;;;31.35;44.44
72409;BME280;60402;48.082;11.628;2023-08-12T13:51:45;95528.06;;;31.38;43.45
72409;BME280;60402;48.082;11.628;2023-08-12T13:54:30;95537.19;;;31.12;44.98
72409;BME280;60402;48.082;11.628;2023-08-12T13:57:16;95530.81;;;31.44;44.75
72409;BME280;60402;48.082;11.628;2023-08-12T14:00:02;95529.81;;;31.64;43.56
72409;BME280;60402;48.082;11.628;2023-08-12T14:02:50;95524.94;;;31.82;42.79
72409;BME280;60402;48.082;11.628;2023-08-12T14:05:36;95512.63;;;31.76;41.43
72409;BME280;60402;48.082;11.628;2023-08-12T14:08:22;95518.91;;;31.57;42.24
72409;BME280;60402;48.082;11.628;2023-08-12T14:11:07;95516.56;;;31.55;42.16
72409;BME280;60402;48.082;11.628;2023-08-12T14:13:53;95513.44;;;31.84;41.23
72409;BME280;60402;48.082;11.628;2023-08-12T14:16:39;95516.16;;;31.74;41.95
72409;BME280;60402;48.082;11.628;2023-08-12T14:19:24;95513.84;;;31.65;41.92
72409;BME280;60402;48.082;11.628;2023-08-12T14:22:10;95526.13;;;31.41;43.20
72409;BME280;60402;48.082;11.628;2023-08-12T14:24:56;95515.03;;;31.54;42.85
72409;BME280;60402;48.082;11.628;2023-08-12T14:27:41;95516.78;;;31.42;43.55